»·PEaware :: COLT1 KLSV-KLSV

COLT1 :: KLSV-KLSV

FLIGHT INFORMATION

Flight Status: Arrived
Operator: Unknown
More flights by this operator :: More flights under this callsign
Pilot: Max D. (7509)
Aircraft: FAIRCHILD A-10 THUNDERBOLT 2
(A10)
More flights by this aircraft type
Origin: KLSV Nellis AFB
United States
Destination: KLSV Nellis AFB
United States
More flights between these airports :: More routes between these airports
Route: +A10 TACH WEST
File this flight plan on PilotEdge
Remarks:
Altitude:
(Current/Filed)
0ft
Speed:
(Current/Filed)
0kts
Departed: 12-Nov-16 03:03 PM
Arrived: 12-Nov-16 04:09 PM
Distance/Time
Traveled:
1nm/1:06
Distance/Time
To Go:
Arrived

Flight Plot

Page will automatically refresh every two minutes.

Flight plan parsing failed; only flown route is shown


Map Options




Map Legend


Flown Route
Filed Route
Departure Airport
Arrival Airport
Navaid (VOR, NDB)
Fix

Horizontal Profiles

Position Reports

Time Latitude Longitude Heading Altitude Ground
Speed
12-Nov-16 14:54 36.226234 -115.036513 219 1850ft 13kts
12-Nov-16 14:55 36.222654 -115.040883 295 1848ft 14kts
12-Nov-16 14:56 36.224904 -115.043767 341 1848ft 17kts
12-Nov-16 14:57 36.250826 -115.016027 39 2011ft 203kts
12-Nov-16 14:58 36.303460 -115.010765 297 2801ft 259kts
12-Nov-16 14:59 36.334029 -115.089010 351 3848ft 251kts
12-Nov-16 15:00 36.401933 -115.098872 348 6119ft 229kts
12-Nov-16 15:01 36.469523 -115.120103 343 7019ft 269kts
12-Nov-16 15:02 36.539195 -115.156264 329 8227ft 270kts
12-Nov-16 15:03 36.603535 -115.182994 346 10772ft 231kts
12-Nov-16 15:04 36.676364 -115.193777 354 10891ft 287kts
12-Nov-16 15:05 36.757393 -115.200386 353 11502ft 279kts
12-Nov-16 15:06 36.836161 -115.208227 354 12129ft 287kts
12-Nov-16 15:07 36.915737 -115.213837 353 12939ft 280kts
12-Nov-16 15:08 36.996322 -115.223174 354 13270ft 290kts
12-Nov-16 15:09 37.067427 -115.196801 82 14123ft 287kts
12-Nov-16 15:10 37.015752 -115.192829 232 14784ft 237kts
12-Nov-16 15:11 37.007242 -115.275333 268 15407ft 274kts
12-Nov-16 15:12 36.963959 -115.339862 169 15180ft 246kts
12-Nov-16 15:13 36.922834 -115.268390 74 15052ft 300kts
12-Nov-16 15:14 36.987213 -115.233273 326 15037ft 266kts
12-Nov-16 15:15 37.001131 -115.314104 233 15015ft 260kts
12-Nov-16 15:16 36.936187 -115.324574 136 15034ft 270kts
12-Nov-16 15:17 36.936783 -115.243428 41 14651ft 297kts
12-Nov-16 15:18 36.992796 -115.263462 282 14210ft 296kts
12-Nov-16 15:19 36.929043 -115.303044 150 12532ft 348kts
12-Nov-16 15:20 36.976646 -115.237438 28 5022ft 328kts
12-Nov-16 15:21 37.009958 -115.182876 134 6728ft 201kts
12-Nov-16 15:22 37.003776 -115.221937 301 3383ft 297kts
12-Nov-16 15:23 37.003137 -115.294289 234 7204ft 221kts
12-Nov-16 15:24 36.956367 -115.364864 213 8210ft 285kts
12-Nov-16 15:25 36.945147 -115.310164 36 7312ft 238kts
12-Nov-16 15:26 36.992015 -115.254993 44 4431ft 235kts
12-Nov-16 15:27 36.992069 -115.227481 227 3331ft 248kts
12-Nov-16 15:28 36.961436 -115.292744 245 6849ft 184kts
12-Nov-16 15:29 36.945863 -115.359492 257 9150ft 222kts
12-Nov-16 15:30 36.934544 -115.441948 261 11398ft 239kts
12-Nov-16 15:31 36.902188 -115.441021 70 12882ft 289kts
12-Nov-16 15:32 36.937080 -115.359917 65 11526ft 237kts
12-Nov-16 15:33 36.964681 -115.298415 67 12119ft 194kts
12-Nov-16 15:34 36.984467 -115.228587 97 14028ft 201kts
12-Nov-16 15:35 36.948115 -115.185041 163 11769ft 271kts
12-Nov-16 15:36 36.975875 -115.234482 329 3919ft 298kts
12-Nov-16 15:37 37.017433 -115.285971 353 7530ft 184kts
12-Nov-16 15:38 36.990957 -115.241938 168 3457ft 205kts
12-Nov-16 15:39 36.933768 -115.237104 223 6028ft 203kts
12-Nov-16 15:40 36.980113 -115.242262 25 3340ft 219kts
12-Nov-16 15:41 36.995367 -115.182611 94 7101ft 204kts
12-Nov-16 15:42 37.034211 -115.153495 326 9055ft 287kts
12-Nov-16 15:43 37.086408 -115.221182 280 13035ft 263kts
12-Nov-16 15:44 37.078262 -115.310803 243 16327ft 269kts
12-Nov-16 15:45 37.035644 -115.395368 241 17699ft 319kts
12-Nov-16 15:46 36.992456 -115.490938 230 15959ft 314kts
12-Nov-16 15:47 36.923839 -115.555708 203 14173ft 296kts
12-Nov-16 15:48 36.853990 -115.601427 210 14029ft 276kts
12-Nov-16 15:49 36.784166 -115.649577 207 15225ft 292kts
12-Nov-16 15:50 36.707286 -115.696102 200 16818ft 315kts
12-Nov-16 15:51 36.622004 -115.729165 197 18473ft 314kts
12-Nov-16 15:52 36.535444 -115.750752 188 19987ft 320kts
12-Nov-16 15:53 36.449250 -115.734363 139 19891ft 357kts
12-Nov-16 15:54 36.373716 -115.649543 133 18395ft 363kts
12-Nov-16 15:55 36.318723 -115.567438 107 15861ft 259kts
12-Nov-16 15:56 36.318275 -115.468906 74 14090ft 349kts
12-Nov-16 15:57 36.344899 -115.350042 90 11616ft 348kts
12-Nov-16 15:58 36.310811 -115.233747 109 6953ft 358kts
12-Nov-16 15:59 36.284745 -115.126713 96 4853ft 275kts
12-Nov-16 16:00 36.297159 -115.043532 76 3603ft 260kts
12-Nov-16 16:01 36.278344 -114.991190 191 2950ft 184kts
12-Nov-16 16:02 36.241815 -115.025819 220 1866ft 136kts
12-Nov-16 16:03 36.225224 -115.043651 214 1849ft 23kts
12-Nov-16 16:04 36.223236 -115.039778 41 1849ft 15kts
12-Nov-16 16:05 36.227330 -115.035344 39 1850ft 25kts
12-Nov-16 16:06 36.230675 -115.028141 91 1850ft 22kts
12-Nov-16 16:07 36.229864 -115.024950 267 1850ft 0kts
12-Nov-16 16:08 36.229864 -115.024949 267 1850ft 0kts

Navigation Log

Ident Type
Flight plan parsing failed, navigation log unavailable